createdAt,value
2023-05-19T00:16:30.273Z,1.40
2023-05-19T00:31:33.483Z,1.50
2023-05-19T00:46:37.261Z,1.90
2023-05-19T01:01:40.159Z,1.20
2023-05-19T01:17:15.204Z,1.40
2023-05-19T01:32:22.557Z,1.60
2023-05-19T01:47:25.852Z,1.40
2023-05-19T02:02:37.569Z,2.00
2023-05-19T02:17:57.529Z,1.80
2023-05-19T03:03:34.707Z,2.30
2023-05-19T03:18:38.384Z,5.10
2023-05-19T03:33:41.265Z,2.10
2023-05-19T03:48:44.738Z,2.20
2023-05-19T04:03:47.579Z,2.00
2023-05-19T04:19:05.753Z,2.20
2023-05-19T04:34:09.493Z,2.10
2023-05-19T04:49:26.554Z,2.20
2023-05-19T05:04:29.348Z,2.40
2023-05-19T05:19:32.893Z,2.40
2023-05-19T05:34:50.856Z,2.60
2023-05-19T05:49:53.787Z,2.10
2023-05-19T06:04:56.697Z,2.40
2023-05-19T06:19:59.921Z,2.50
2023-05-19T06:35:03.101Z,2.60
2023-05-19T06:50:06.472Z,3.10
2023-05-19T07:05:10.070Z,2.70
2023-05-19T07:20:13.624Z,3.30
2023-05-19T07:35:16.520Z,3.00
2023-05-19T07:50:33.832Z,3.00
2023-05-19T08:05:36.870Z,3.40
2023-05-19T08:20:39.978Z,3.70
2023-05-19T08:36:00.288Z,3.30
2023-05-19T08:51:30.738Z,3.10
2023-05-19T09:06:33.400Z,3.40
2023-05-19T09:22:03.282Z,2.80
2023-05-19T09:37:06.154Z,3.10
2023-05-19T09:52:10.011Z,2.70
2023-05-19T10:07:15.315Z,1.80
2023-05-19T10:22:18.727Z,1.60
2023-05-19T10:37:52.926Z,1.80
2023-05-19T10:52:56.190Z,3.20
2023-05-19T11:08:07.496Z,2.90
2023-05-19T11:23:26.658Z,2.20
2023-05-19T11:38:29.612Z,2.30
2023-05-19T11:53:35.538Z,2.40
2023-05-19T12:08:38.679Z,2.20
2023-05-19T12:23:56.333Z,2.10
2023-05-19T12:38:59.090Z,2.20
2023-05-19T12:54:04.840Z,2.50
2023-05-19T13:09:22.301Z,2.70
2023-05-19T13:24:25.334Z,3.30
2023-05-19T13:39:28.241Z,2.80
2023-05-19T13:54:30.866Z,2.70
2023-05-19T14:09:33.772Z,2.60
2023-05-19T14:24:36.951Z,2.60
2023-05-19T14:39:54.857Z,2.80
2023-05-19T14:54:58.206Z,2.70
2023-05-19T15:10:01.584Z,2.60
2023-05-19T15:25:06.041Z,2.80
2023-05-19T15:40:10.467Z,3.30
2023-05-19T15:55:39.513Z,2.50
2023-05-19T16:10:42.580Z,2.80
2023-05-19T16:25:47.075Z,2.60
2023-05-19T16:40:50.372Z,3.50
2023-05-19T16:55:53.838Z,3.10
2023-05-19T17:10:59.125Z,4.00
2023-05-19T17:26:03.149Z,3.20
2023-05-19T17:56:45.228Z,3.70
2023-05-19T18:11:48.152Z,5.20
2023-05-19T18:27:06.142Z,4.00
2023-05-19T18:42:09.140Z,3.90
2023-05-19T18:57:13.332Z,3.80
2023-05-19T20:02:01.808Z,4.20
2023-05-19T20:17:06.844Z,12.10
2023-05-19T20:32:10.883Z,5.70
2023-05-19T20:47:15.015Z,8.80
2023-05-19T21:02:20.345Z,5.40
2023-05-19T21:17:24.064Z,4.90
2023-05-19T21:32:29.364Z,5.00
2023-05-19T21:47:32.080Z,4.70
2023-05-19T22:02:40.282Z,5.40
2023-05-19T22:17:43.626Z,5.80
2023-05-19T22:32:46.713Z,5.70
2023-05-19T22:47:50.266Z,5.60
2023-05-19T23:37:55.301Z,6.50
2023-05-19T23:52:58.155Z,6.10
